createdAt,value
2018-06-15T00:01:31.634Z,100186.16
2018-06-15T00:03:10.458Z,100152.87
2018-06-15T00:04:47.042Z,100162.61
2018-06-15T00:06:26.229Z,100199.97
2018-06-15T00:08:02.619Z,100247.88
2018-06-15T00:09:39.455Z,100252.80
2018-06-15T00:11:15.685Z,100215.42
2018-06-15T00:12:52.301Z,100206.23
2018-06-15T00:14:30.753Z,100245.72
2018-06-15T00:16:08.691Z,100185.39
2018-06-15T00:18:00.226Z,100237.23
2018-06-15T00:19:37.228Z,100323.44
2018-06-15T00:21:14.995Z,100383.92
2018-06-15T00:22:51.267Z,100425.67
2018-06-15T00:24:27.480Z,100463.96
2018-06-15T00:26:03.744Z,100491.05
2018-06-15T00:27:40.254Z,100495.00
2018-06-15T00:29:16.519Z,100463.38
2018-06-15T00:30:52.925Z,100439.98
2018-06-15T00:32:29.155Z,100468.78
2018-06-15T00:34:06.946Z,100398.20
2018-06-15T00:35:43.224Z,100471.48
2018-06-15T00:37:19.593Z,100437.28
2018-06-15T00:38:58.553Z,100406.30
2018-06-15T00:40:34.788Z,100452.91
2018-06-15T00:42:11.014Z,100478.24
2018-06-15T00:43:47.331Z,100468.48
2018-06-15T00:45:25.519Z,100485.32
2018-06-15T00:47:04.663Z,100548.09
2018-06-15T00:48:40.938Z,100532.02
2018-06-15T00:50:19.799Z,100491.67
2018-06-15T00:51:56.066Z,100409.33
2018-06-15T00:53:32.870Z,100409.98
2018-06-15T00:55:11.045Z,100379.26
2018-06-15T00:57:04.279Z,100393.05
2018-06-15T00:58:43.478Z,100315.72
2018-06-15T01:00:21.686Z,100236.22
2018-06-15T01:01:58.030Z,100316.66
2018-06-15T01:03:34.382Z,100378.38
2018-06-15T01:05:11.999Z,100295.33
2018-06-15T01:06:49.587Z,100373.06
2018-06-15T01:08:25.798Z,100407.28
2018-06-15T01:10:03.775Z,100477.07
2018-06-15T01:11:40.545Z,100522.02
2018-06-15T01:13:16.675Z,100502.81
2018-06-15T01:14:52.990Z,100533.56
2018-06-15T01:16:29.092Z,100534.91
2018-06-15T01:18:06.795Z,100532.20
2018-06-15T01:19:44.881Z,100493.50
2018-06-15T01:29:55.895Z,100527.42
2018-06-15T01:31:32.482Z,100422.50
2018-06-15T01:33:08.896Z,100451.81
2018-06-15T01:34:45.260Z,100452.22
2018-06-15T01:36:23.421Z,100469.22
2018-06-15T01:38:00.341Z,100477.63
2018-06-15T01:46:03.431Z,100449.30
2018-06-15T01:47:40.401Z,100429.26
2018-06-15T01:49:16.637Z,100398.16
2018-06-15T01:50:53.381Z,100212.53
2018-06-15T01:52:29.624Z,100158.48
2018-06-15T01:54:05.852Z,100224.13
2018-06-15T01:55:43.064Z,100360.44
2018-06-15T01:57:19.749Z,100373.80
2018-06-15T01:58:57.634Z,100309.78
2018-06-15T02:00:35.465Z,100244.11
2018-06-15T02:02:12.175Z,100083.39
2018-06-15T02:03:50.050Z,100070.17
2018-06-15T02:09:43.987Z,100344.39
2018-06-15T02:11:39.778Z,100421.81
2018-06-15T02:13:16.373Z,100476.53
2018-06-15T02:14:58.949Z,100502.19
2018-06-15T02:16:49.331Z,100363.62
2018-06-15T02:18:25.624Z,100264.56
2018-06-15T02:25:09.105Z,99768.02
2018-06-15T02:26:45.518Z,99678.12
2018-06-15T02:28:21.782Z,99590.13
2018-06-15T02:29:58.334Z,99656.98
2018-06-15T02:31:34.579Z,99753.48
2018-06-15T02:33:12.717Z,99942.53
2018-06-15T02:34:49.037Z,100001.94
2018-06-15T02:36:25.757Z,100016.61
2018-06-15T02:38:01.979Z,100176.31
2018-06-15T02:39:38.278Z,100149.27
2018-06-15T02:41:14.522Z,100186.95
2018-06-15T02:42:51.202Z,100232.70
2018-06-15T02:44:28.998Z,100229.12
2018-06-15T02:46:05.251Z,100218.12
2018-06-15T02:47:41.499Z,100278.45
2018-06-15T02:49:18.319Z,100377.99
2018-06-15T02:50:54.563Z,100437.95
2018-06-15T02:52:30.849Z,100402.95
2018-06-15T02:54:07.173Z,100518.00
2018-06-15T02:55:44.102Z,100598.49
2018-06-15T02:57:20.539Z,100533.08
2018-06-15T02:58:57.535Z,100528.63
2018-06-15T03:00:33.770Z,100478.83
2018-06-15T03:02:11.194Z,100453.20
2018-06-15T03:06:03.853Z,100364.72
2018-06-15T03:07:40.102Z,100345.20
2018-06-15T03:09:17.115Z,100349.06
2018-06-15T03:10:53.402Z,100372.27
2018-06-15T03:12:29.896Z,100410.94
2018-06-15T03:14:09.632Z,100400.72
2018-06-15T03:15:46.626Z,100412.30
2018-06-15T03:17:25.002Z,100400.80
2018-06-15T03:19:02.823Z,100390.55
2018-06-15T03:20:39.531Z,100362.09
2018-06-15T03:22:15.958Z,100362.49
2018-06-15T03:23:53.728Z,100386.56
2018-06-15T03:25:30.731Z,100319.02
2018-06-15T03:27:07.275Z,100147.71
2018-06-15T03:28:43.591Z,100011.06
2018-06-15T03:30:21.192Z,99961.91
2018-06-15T03:31:58.118Z,99950.02
2018-06-15T03:33:34.388Z,99950.89
2018-06-15T03:35:12.195Z,99987.17
2018-06-15T03:36:48.834Z,99994.27
2018-06-15T03:38:25.062Z,100063.17
2018-06-15T03:40:01.347Z,100208.14
2018-06-15T03:41:38.068Z,100320.91
2018-06-15T03:43:15.483Z,100303.16
2018-06-15T03:44:51.794Z,100385.77
2018-06-15T03:46:28.109Z,100432.48
2018-06-15T03:48:05.186Z,100525.86
2018-06-15T03:49:41.718Z,100565.36
2018-06-15T03:51:17.898Z,100497.45
2018-06-15T03:52:55.042Z,100409.85
2018-06-15T03:54:31.239Z,100342.28
2018-06-15T03:56:07.850Z,100328.64
2018-06-15T03:57:44.061Z,100216.23
2018-06-15T03:59:20.306Z,100089.31
2018-06-15T04:00:57.527Z,100071.73
2018-06-15T04:02:34.319Z,100182.92
2018-06-15T04:04:10.547Z,100317.92
2018-06-15T04:05:46.818Z,100424.55
2018-06-15T04:07:23.255Z,100479.23
2018-06-15T04:08:59.871Z,100524.20
2018-06-15T04:10:36.716Z,100566.86
2018-06-15T04:12:13.194Z,100369.09
2018-06-15T04:13:49.514Z,100237.63
2018-06-15T04:15:29.569Z,100173.73
2018-06-15T04:17:05.854Z,100043.73
2018-06-15T04:18:42.670Z,100027.23
2018-06-15T04:20:19.042Z,100040.16
2018-06-15T04:21:56.620Z,100112.53
2018-06-15T04:23:33.422Z,100157.34
2018-06-15T04:25:13.236Z,100164.92
2018-06-15T04:26:49.750Z,100277.23
2018-06-15T04:28:27.013Z,100120.95
2018-06-15T04:30:04.661Z,100041.52
2018-06-15T04:31:40.870Z,99953.85
2018-06-15T04:33:17.867Z,99905.96
2018-06-15T04:34:58.451Z,99893.52
2018-06-15T04:36:35.105Z,99947.11
2018-06-15T04:38:12.387Z,100000.33
2018-06-15T04:41:30.150Z,99985.77
2018-06-15T04:43:06.394Z,100037.66
2018-06-15T04:44:42.521Z,100221.31
2018-06-15T04:46:19.634Z,100307.13
2018-06-15T04:47:55.816Z,100264.87
2018-06-15T04:49:32.019Z,100379.90
2018-06-15T04:51:08.383Z,100527.45
2018-06-15T04:52:45.143Z,100620.81
2018-06-15T04:54:21.688Z,100710.73
2018-06-15T04:55:57.995Z,100740.09
2018-06-15T04:57:34.219Z,100790.53
2018-06-15T04:59:10.934Z,100787.36
2018-06-15T05:00:47.474Z,100770.02
2018-06-15T05:02:26.710Z,100781.24
2018-06-15T05:04:05.891Z,100801.69
2018-06-15T05:05:42.533Z,100741.98
2018-06-15T05:07:18.714Z,100523.11
2018-06-15T05:08:54.977Z,100581.32
2018-06-15T05:10:33.913Z,100633.37
2018-06-15T05:12:10.844Z,100545.75
2018-06-15T05:13:47.079Z,100651.27
2018-06-15T05:15:25.110Z,100704.12
2018-06-15T05:17:01.939Z,100739.83
2018-06-15T05:18:38.138Z,100702.77
2018-06-15T05:20:14.347Z,100656.98
2018-06-15T05:21:50.614Z,100656.61
2018-06-15T05:23:27.266Z,100600.09
2018-06-15T05:25:03.462Z,100649.45
2018-06-15T05:26:40.686Z,100594.28
2018-06-15T05:28:17.530Z,100492.52
2018-06-15T05:29:55.106Z,100480.62
2018-06-15T05:31:32.324Z,100523.25
2018-06-15T05:33:10.508Z,100638.48
2018-06-15T05:34:47.455Z,100689.56
2018-06-15T05:36:24.259Z,100729.19
2018-06-15T05:38:01.366Z,100584.12
2018-06-15T05:39:37.620Z,100541.91
2018-06-15T05:41:13.907Z,100496.09
2018-06-15T05:42:50.595Z,100661.61
2018-06-15T05:44:28.282Z,100800.17
2018-06-15T05:46:04.702Z,100912.30
2018-06-15T05:47:43.056Z,100996.14
2018-06-15T05:49:20.819Z,100955.11
2018-06-15T05:50:57.105Z,100721.63
2018-06-15T05:52:34.875Z,100604.62
2018-06-15T05:54:13.621Z,100490.36
2018-06-15T05:55:50.029Z,100438.83
2018-06-15T05:57:27.110Z,100619.78
2018-06-15T05:59:05.281Z,100764.02
2018-06-15T06:00:42.745Z,100706.12
2018-06-15T06:02:21.290Z,100730.61
2018-06-15T06:03:58.384Z,100938.23
2018-06-15T06:05:34.594Z,100957.41
2018-06-15T06:07:10.859Z,100846.07
2018-06-15T06:08:48.482Z,100805.08
2018-06-15T06:10:25.055Z,100663.51
2018-06-15T06:12:04.486Z,100544.72
2018-06-15T06:13:43.169Z,100563.38
2018-06-15T06:15:24.633Z,100732.91
2018-06-15T06:17:01.839Z,100879.88
2018-06-15T06:18:38.103Z,101169.35
2018-06-15T06:20:15.003Z,101308.67
2018-06-15T06:21:54.606Z,101412.38
2018-06-15T06:23:30.788Z,101522.37
2018-06-15T06:25:08.048Z,101652.52
2018-06-15T06:26:44.357Z,101761.35
2018-06-15T06:28:22.726Z,101729.97
2018-06-15T06:29:59.814Z,101632.86
2018-06-15T06:31:36.217Z,101481.32
2018-06-15T06:33:13.495Z,101444.63
2018-06-15T06:34:50.605Z,101320.45
2018-06-15T06:36:26.858Z,101124.80
2018-06-15T06:38:03.816Z,101086.52
2018-06-15T06:39:42.766Z,100995.94
2018-06-15T06:41:19.736Z,100975.47
2018-06-15T06:42:55.967Z,101175.23
2018-06-15T06:44:32.210Z,101153.81
2018-06-15T06:46:10.570Z,101074.87
2018-06-15T06:47:47.292Z,101113.69
2018-06-15T06:49:23.785Z,101163.69
2018-06-15T06:51:00.656Z,101065.39
2018-06-15T06:52:38.733Z,101088.74
2018-06-15T06:54:20.094Z,101247.17
2018-06-15T06:55:56.328Z,101452.22
2018-06-15T06:57:34.192Z,101587.20
2018-06-15T06:59:10.546Z,101588.09
2018-06-15T07:00:49.628Z,101078.45
2018-06-15T07:02:27.678Z,100650.72
2018-06-15T07:04:04.713Z,100403.03
2018-06-15T07:05:40.929Z,100471.02
2018-06-15T07:07:18.418Z,100703.19
2018-06-15T07:08:56.914Z,100989.10
2018-06-15T07:10:34.721Z,101194.84
2018-06-15T07:12:11.439Z,101310.50
2018-06-15T07:13:48.712Z,101438.80
2018-06-15T07:15:30.377Z,101520.13
2018-06-15T07:17:07.055Z,101564.84
2018-06-15T07:18:44.028Z,101380.72
2018-06-15T07:20:22.505Z,101467.00
2018-06-15T07:21:59.625Z,101638.28
2018-06-15T07:23:38.087Z,101745.16
2018-06-15T07:25:16.968Z,101814.22
2018-06-15T07:26:53.421Z,101804.83
2018-06-15T07:28:30.469Z,101902.03
2018-06-15T07:30:07.183Z,102012.33
2018-06-15T07:31:44.258Z,102058.09
2018-06-15T07:33:22.094Z,102115.52
2018-06-15T07:35:04.576Z,102157.28
2018-06-15T07:36:41.463Z,102078.71
2018-06-15T07:38:18.704Z,102028.05
2018-06-15T07:39:54.972Z,101884.11
2018-06-15T07:41:31.819Z,101577.47
2018-06-15T07:43:08.780Z,101420.52
2018-06-15T07:44:45.143Z,101158.34
2018-06-15T07:46:21.532Z,101025.27
2018-06-15T07:47:59.795Z,101054.33
2018-06-15T07:49:38.975Z,101000.73
2018-06-15T07:51:16.245Z,101050.34
2018-06-15T07:52:53.174Z,101140.03
2018-06-15T07:54:32.543Z,100938.77
2018-06-15T07:56:08.891Z,100820.35
2018-06-15T07:57:46.297Z,100778.42
2018-06-15T07:59:24.608Z,100758.34
2018-06-15T08:01:02.501Z,100896.03
2018-06-15T08:02:40.501Z,101044.45
2018-06-15T08:04:21.515Z,101150.62
2018-06-15T08:06:02.207Z,101298.94
2018-06-15T08:07:39.164Z,101348.48
2018-06-15T08:09:18.631Z,101289.59
2018-06-15T08:10:56.346Z,101210.42
2018-06-15T08:12:33.528Z,101063.09
2018-06-15T08:14:10.692Z,100887.11
2018-06-15T08:15:47.438Z,100883.56
2018-06-15T08:17:24.672Z,101063.16
2018-06-15T08:19:01.478Z,101064.52
2018-06-15T08:20:38.391Z,101023.91
2018-06-15T08:22:15.583Z,100927.58
2018-06-15T08:23:55.229Z,100792.61
2018-06-15T08:25:32.509Z,101109.46
2018-06-15T08:27:09.658Z,101369.88
2018-06-15T08:28:45.997Z,101574.53
2018-06-15T08:30:24.677Z,101667.22
2018-06-15T08:32:01.714Z,101913.98
2018-06-15T08:33:42.913Z,101989.33
2018-06-15T08:35:24.842Z,102225.36
2018-06-15T08:37:02.018Z,102336.75
2018-06-15T08:38:38.883Z,102414.94
2018-06-15T08:40:16.075Z,102379.92
2018-06-15T08:41:54.626Z,102347.48
2018-06-15T08:43:31.800Z,102320.06
2018-06-15T08:45:11.785Z,102321.89
2018-06-15T08:46:49.599Z,102248.70
2018-06-15T08:48:26.634Z,102248.75
2018-06-15T08:50:03.531Z,102211.88
2018-06-15T08:51:43.095Z,102282.85
2018-06-15T08:53:21.803Z,102351.57
2018-06-15T08:54:58.095Z,102381.28
2018-06-15T08:56:34.975Z,102340.69
2018-06-15T08:58:14.230Z,102271.14
2018-06-15T08:59:52.491Z,102219.98
2018-06-15T09:01:32.532Z,102285.48
2018-06-15T09:03:08.745Z,102361.87
2018-06-15T09:04:45.452Z,102410.85
2018-06-15T09:06:25.733Z,102222.17
2018-06-15T09:08:01.999Z,102287.73
2018-06-15T09:09:39.730Z,102295.78
2018-06-15T09:11:16.456Z,102152.59
2018-06-15T09:12:53.256Z,102320.90
2018-06-15T09:14:33.243Z,102410.77
2018-06-15T09:16:10.767Z,102351.45
2018-06-15T09:17:48.715Z,102109.03
2018-06-15T09:19:28.221Z,102229.24
2018-06-15T09:21:04.538Z,102408.13
2018-06-15T09:22:41.642Z,102562.33
2018-06-15T09:24:19.927Z,102623.92
2018-06-15T09:27:36.630Z,102786.88
2018-06-15T09:29:12.709Z,102820.60
2018-06-15T09:30:50.297Z,102750.32
2018-06-15T09:32:26.591Z,102683.30
2018-06-15T09:34:04.256Z,102642.74
2018-06-15T09:35:40.610Z,102478.53
2018-06-15T09:37:17.703Z,102376.05
2018-06-15T09:38:57.300Z,102348.16
2018-06-15T09:40:35.241Z,102237.67
2018-06-15T09:42:12.722Z,102117.33
2018-06-15T09:43:49.490Z,102112.37
2018-06-15T09:45:29.375Z,102024.44
2018-06-15T09:47:07.494Z,101947.27
2018-06-15T09:48:45.547Z,102102.50
2018-06-15T09:50:23.189Z,102047.72
2018-06-15T09:52:02.199Z,102136.57
2018-06-15T09:53:39.640Z,102254.56
2018-06-15T09:55:16.994Z,102223.13
2018-06-15T09:56:56.286Z,102132.88
2018-06-15T09:58:36.071Z,102335.44
2018-06-15T10:00:18.346Z,102539.93
2018-06-15T10:01:55.314Z,102749.27
2018-06-15T10:03:32.442Z,102642.15
2018-06-15T10:05:09.563Z,102507.50
2018-06-15T10:06:46.198Z,102467.53
2018-06-15T10:08:25.532Z,102428.42
2018-06-15T10:10:01.738Z,102658.25
2018-06-15T10:11:38.121Z,102730.67
2018-06-15T10:13:16.755Z,102828.36
2018-06-15T10:14:54.786Z,102926.13
2018-06-15T10:16:35.904Z,102858.06
2018-06-15T10:18:16.630Z,102922.98
2018-06-15T10:19:53.682Z,102979.27
2018-06-15T10:21:31.179Z,102969.36
2018-06-15T10:23:10.391Z,102935.58
2018-06-15T10:24:47.642Z,102928.34
2018-06-15T10:26:25.768Z,102919.31
2018-06-15T10:28:04.702Z,102890.02
2018-06-15T10:29:44.185Z,102819.66
2018-06-15T10:31:24.700Z,102804.30
2018-06-15T10:33:02.558Z,102809.74
2018-06-15T10:34:41.542Z,102857.45
2018-06-15T10:36:18.148Z,102648.09
2018-06-15T10:37:57.067Z,102651.19
2018-06-15T10:39:37.440Z,102695.77
2018-06-15T10:41:15.966Z,102689.00
2018-06-15T10:42:54.791Z,102684.45
2018-06-15T10:44:33.467Z,102798.31
2018-06-15T10:46:23.297Z,102860.94
2018-06-15T10:48:02.399Z,102867.73
2018-06-15T10:49:39.267Z,102803.69
2018-06-15T10:51:16.439Z,102667.34
2018-06-15T10:52:53.150Z,102508.03
2018-06-15T10:54:32.649Z,102667.77
2018-06-15T10:56:08.937Z,102757.25
2018-06-15T10:57:45.689Z,102801.32
2018-06-15T11:01:02.450Z,102700.97
2018-06-15T11:02:40.652Z,102839.20
2018-06-15T11:04:18.690Z,102786.85
2018-06-15T11:05:57.243Z,102673.49
2018-06-15T11:07:33.511Z,102561.78
2018-06-15T11:09:13.447Z,102245.41
2018-06-15T11:10:50.440Z,102206.28
2018-06-15T11:12:28.703Z,102443.05
2018-06-15T11:15:49.856Z,102696.21
2018-06-15T11:17:27.222Z,102570.17
2018-06-15T11:19:07.450Z,102533.77
2018-06-15T11:20:46.525Z,102408.68
2018-06-15T11:22:27.654Z,102377.27
2018-06-15T11:24:04.862Z,102321.05
2018-06-15T11:25:45.467Z,102259.52
2018-06-15T11:27:23.505Z,102298.13
2018-06-15T11:29:03.500Z,102380.83
2018-06-15T11:30:42.548Z,102468.88
2018-06-15T11:32:20.962Z,102531.81
2018-06-15T11:33:58.321Z,102480.54
2018-06-15T11:35:39.414Z,102311.94
2018-06-15T11:37:16.803Z,102320.90
2018-06-15T11:38:54.690Z,102395.92
2018-06-15T11:40:31.686Z,102466.98
2018-06-15T11:42:08.927Z,102545.66
2018-06-15T11:43:46.651Z,102641.48
2018-06-15T11:45:24.860Z,102617.16
2018-06-15T11:47:01.195Z,102564.05
2018-06-15T11:48:37.410Z,102634.30
2018-06-15T11:50:14.422Z,102828.78
2018-06-15T11:51:50.736Z,102887.28
2018-06-15T11:53:27.810Z,102944.56
2018-06-15T11:55:05.320Z,102986.46
2018-06-15T11:56:43.715Z,103024.30
2018-06-15T11:58:23.702Z,103024.25
2018-06-15T12:00:01.286Z,102969.24
2018-06-15T12:01:40.432Z,102892.68
2018-06-15T12:03:17.095Z,102812.00
2018-06-15T12:04:54.012Z,102889.00
2018-06-15T12:06:30.494Z,102968.30
2018-06-15T12:08:07.739Z,103039.05
2018-06-15T12:09:44.651Z,103109.01
2018-06-15T12:11:23.283Z,103192.97
2018-06-15T12:13:00.335Z,103219.16
2018-06-15T12:14:41.870Z,103263.38
2018-06-15T12:16:18.746Z,103275.97
2018-06-15T12:17:55.964Z,103292.70
2018-06-15T12:19:35.613Z,103115.26
2018-06-15T12:21:13.795Z,103072.33
2018-06-15T12:22:53.833Z,103034.48
2018-06-15T12:24:33.518Z,102992.02
2018-06-15T12:26:12.930Z,102923.98
2018-06-15T12:27:52.566Z,103028.55
2018-06-15T12:29:30.984Z,103098.50
2018-06-15T12:31:08.739Z,103053.83
2018-06-15T12:32:48.320Z,103101.61
2018-06-15T12:34:26.170Z,103199.46
2018-06-15T12:36:05.296Z,103232.91
2018-06-15T12:37:46.626Z,103275.78
2018-06-15T12:39:25.232Z,103216.61
2018-06-15T12:41:06.919Z,102969.75
2018-06-15T12:42:46.743Z,102898.53
2018-06-15T12:44:22.994Z,102691.37
2018-06-15T12:46:05.451Z,102807.94
2018-06-15T12:47:43.539Z,102813.34
2018-06-15T12:49:27.029Z,102603.48
2018-06-15T12:51:03.907Z,102754.78
2018-06-15T12:52:42.549Z,102773.56
2018-06-15T12:54:19.485Z,102783.06
2018-06-15T12:55:58.535Z,102846.19
2018-06-15T12:57:36.420Z,102957.89
2018-06-15T12:59:13.665Z,103050.30
2018-06-15T13:00:53.974Z,103276.95
2018-06-15T13:02:31.892Z,103365.46
2018-06-15T13:04:10.697Z,103305.37
2018-06-15T13:05:47.957Z,103101.23
2018-06-15T13:07:27.303Z,102955.53
2018-06-15T13:09:05.938Z,103057.45
2018-06-15T13:10:44.492Z,103105.22
2018-06-15T13:12:25.603Z,102950.55
2018-06-15T13:14:01.867Z,102617.19
2018-06-15T13:15:39.314Z,102629.75
2018-06-15T13:17:15.515Z,102853.63
2018-06-15T13:18:51.692Z,102990.61
2018-06-15T13:20:28.060Z,103030.66
2018-06-15T13:22:04.681Z,102993.20
2018-06-15T13:23:41.481Z,102950.83
2018-06-15T13:25:18.383Z,102970.25
2018-06-15T13:26:56.483Z,102877.35
2018-06-15T13:28:33.127Z,102771.89
2018-06-15T13:30:10.994Z,102771.42
2018-06-15T13:31:51.617Z,102920.10
2018-06-15T13:33:28.975Z,103046.80
2018-06-15T13:35:08.122Z,103132.95
2018-06-15T13:36:46.194Z,103129.80
2018-06-15T13:38:23.508Z,102875.46
2018-06-15T13:40:00.620Z,102946.19
2018-06-15T13:41:38.617Z,103028.72
2018-06-15T13:43:17.710Z,103019.69
2018-06-15T13:44:57.508Z,103216.87
2018-06-15T13:46:35.051Z,103156.31
2018-06-15T13:48:11.289Z,103137.75
2018-06-15T13:49:48.532Z,103277.33
2018-06-15T13:51:25.811Z,103348.22
2018-06-15T13:53:03.375Z,103376.70
2018-06-15T13:54:46.642Z,103365.34
2018-06-15T13:56:26.340Z,103405.18
2018-06-15T13:58:05.197Z,103376.18
2018-06-15T13:59:44.576Z,103295.75
2018-06-15T14:01:23.384Z,102944.63
2018-06-15T14:03:01.247Z,102911.66
2018-06-15T14:04:40.851Z,103079.84
2018-06-15T14:06:21.331Z,103217.06
2018-06-15T14:08:02.055Z,103287.47
2018-06-15T14:09:40.550Z,103261.27
2018-06-15T14:11:19.455Z,103220.64
2018-06-15T14:12:56.747Z,103114.95
2018-06-15T14:14:33.268Z,103177.70
2018-06-15T14:16:12.879Z,103254.00
2018-06-15T14:17:52.812Z,103197.03
2018-06-15T14:19:32.555Z,103099.08
2018-06-15T14:21:13.651Z,103026.91
2018-06-15T14:22:56.506Z,103071.12
2018-06-15T14:24:37.239Z,103170.38
2018-06-15T14:26:18.696Z,103071.48
2018-06-15T14:28:00.813Z,102983.09
2018-06-15T14:29:43.596Z,102991.98
2018-06-15T14:31:26.659Z,103067.39
2018-06-15T14:33:04.368Z,103098.94
2018-06-15T14:34:43.488Z,102706.33
2018-06-15T14:36:20.003Z,102559.55
2018-06-15T14:38:00.647Z,102490.31
2018-06-15T14:39:37.829Z,102488.38
2018-06-15T14:41:16.118Z,102527.11
2018-06-15T14:42:52.348Z,102317.14
2018-06-15T14:44:30.162Z,102205.74
2018-06-15T14:46:08.947Z,102181.88
2018-06-15T14:47:45.503Z,102159.42
2018-06-15T14:49:23.637Z,102279.31
2018-06-15T14:51:01.654Z,102442.88
2018-06-15T14:52:38.495Z,102696.25
2018-06-15T14:54:15.410Z,102909.30
2018-06-15T14:55:53.809Z,103034.19
2018-06-15T14:57:32.495Z,103146.05
2018-06-15T14:59:11.368Z,103238.62
2018-06-15T15:00:49.302Z,103283.36
2018-06-15T15:02:27.394Z,103342.04
2018-06-15T15:04:06.338Z,103466.78
2018-06-15T15:05:46.591Z,103476.73
2018-06-15T15:07:24.602Z,103507.07
2018-06-15T15:09:06.617Z,103517.41
2018-06-15T15:10:44.329Z,103418.42
2018-06-15T15:12:21.202Z,103428.38
2018-06-15T15:13:59.714Z,103311.67
2018-06-15T15:15:39.829Z,103294.14
2018-06-15T15:17:21.475Z,103410.69
2018-06-15T15:19:00.167Z,103405.69
2018-06-15T15:20:40.224Z,103314.32
2018-06-15T15:22:25.086Z,103141.85
2018-06-15T15:24:04.443Z,103021.84
2018-06-15T15:25:43.431Z,103044.81
2018-06-15T15:27:21.713Z,102840.58
2018-06-15T15:28:59.524Z,102902.27
2018-06-15T15:30:37.573Z,103085.77
2018-06-15T15:32:15.464Z,103098.84
2018-06-15T15:33:57.762Z,103044.61
2018-06-15T15:35:34.160Z,102957.17
2018-06-15T15:37:14.610Z,102845.78
2018-06-15T15:38:51.442Z,102805.20
2018-06-15T15:40:30.531Z,102777.64
2018-06-15T15:42:08.583Z,102813.78
2018-06-15T15:43:45.682Z,102885.41
2018-06-15T15:45:22.242Z,102984.06
2018-06-15T15:47:00.370Z,103101.38
2018-06-15T15:48:39.005Z,103131.20
2018-06-15T15:50:15.236Z,103196.61
2018-06-15T15:51:53.231Z,103178.06
2018-06-15T15:53:29.838Z,103159.12
2018-06-15T15:55:08.559Z,103115.27
2018-06-15T15:56:46.830Z,103047.56
2018-06-15T15:58:25.776Z,103178.00
2018-06-15T16:00:05.570Z,103201.47
2018-06-15T16:01:42.997Z,103295.83
2018-06-15T16:03:22.205Z,103417.52
2018-06-15T16:05:01.460Z,103516.05
2018-06-15T16:06:40.894Z,103574.39
2018-06-15T16:08:20.239Z,103547.61
2018-06-15T16:09:58.270Z,103288.56
2018-06-15T16:11:34.676Z,103097.64
2018-06-15T16:13:13.175Z,103201.84
2018-06-15T16:14:51.135Z,103328.34
2018-06-15T16:16:28.808Z,103355.03
2018-06-15T16:18:06.442Z,103315.61
2018-06-15T16:19:43.197Z,103274.03
2018-06-15T16:21:21.607Z,103215.73
2018-06-15T16:22:57.833Z,103323.76
2018-06-15T16:24:37.795Z,103412.28
2018-06-15T16:26:16.028Z,103473.75
2018-06-15T16:27:55.526Z,103451.16
2018-06-15T16:29:33.643Z,103210.73
2018-06-15T16:31:10.352Z,103207.58
2018-06-15T16:32:48.663Z,103294.69
2018-06-15T16:34:30.919Z,103342.58
2018-06-15T16:36:07.903Z,103338.09
2018-06-15T16:37:53.843Z,103319.98
2018-06-15T16:39:33.535Z,103258.01
2018-06-15T16:41:10.367Z,103190.34
2018-06-15T16:42:48.238Z,103165.92
2018-06-15T16:44:34.587Z,103071.06
2018-06-15T16:46:15.429Z,102979.03
2018-06-15T16:47:55.768Z,102885.22
2018-06-15T16:49:37.840Z,102842.41
2018-06-15T16:51:14.028Z,102923.14
2018-06-15T16:52:54.611Z,103028.62
2018-06-15T16:54:35.357Z,103082.21
2018-06-15T16:56:12.840Z,103111.08
2018-06-15T16:57:59.620Z,103048.40
2018-06-15T16:59:37.271Z,103010.98
2018-06-15T17:01:14.807Z,102986.08
2018-06-15T17:02:51.789Z,103016.33
2018-06-15T17:04:30.872Z,102986.92
2018-06-15T17:06:08.888Z,102935.53
2018-06-15T17:07:50.364Z,102983.77
2018-06-15T17:09:31.468Z,103007.72
2018-06-15T17:11:11.567Z,102950.83
2018-06-15T17:12:51.323Z,102914.73
2018-06-15T17:14:28.297Z,103009.83
2018-06-15T17:16:12.173Z,103067.13
2018-06-15T17:17:53.509Z,103035.11
2018-06-15T17:19:32.051Z,102927.23
2018-06-15T17:21:09.678Z,102971.52
2018-06-15T17:22:46.854Z,103069.80
2018-06-15T17:24:24.758Z,103116.71
2018-06-15T17:26:03.499Z,103105.83
2018-06-15T17:27:39.760Z,103014.23
2018-06-15T17:29:18.930Z,102946.09
2018-06-15T17:30:56.363Z,103004.30
2018-06-15T17:32:34.621Z,102949.25
2018-06-15T17:34:16.090Z,102988.05
2018-06-15T17:35:55.203Z,102902.38
2018-06-15T17:37:32.634Z,102917.14
2018-06-15T17:39:12.701Z,102980.33
2018-06-15T17:40:50.226Z,102763.91
2018-06-15T17:42:28.813Z,102774.77
2018-06-15T17:45:37.909Z,102845.44
2018-06-15T17:47:17.434Z,102829.64
2018-06-15T17:48:54.531Z,102862.56
2018-06-15T17:50:32.725Z,102906.22
2018-06-15T17:52:11.160Z,102870.55
2018-06-15T17:53:49.437Z,102920.63
2018-06-15T17:55:25.664Z,102888.98
2018-06-15T17:57:02.918Z,102770.09
2018-06-15T17:58:39.189Z,102789.42
2018-06-15T18:00:21.548Z,102824.53
2018-06-15T18:02:03.357Z,102760.59
2018-06-15T18:05:36.642Z,102544.83
2018-06-15T18:07:21.767Z,102522.33
2018-06-15T18:09:05.627Z,102575.39
2018-06-15T18:10:44.494Z,102648.30
2018-06-15T18:12:25.416Z,102653.70
2018-06-15T18:14:07.454Z,102728.94
2018-06-15T18:15:44.381Z,102785.11
2018-06-15T18:17:28.492Z,102750.51
2018-06-15T18:19:09.498Z,102759.05
2018-06-15T18:20:48.419Z,102777.48
2018-06-15T18:22:35.762Z,102836.47
2018-06-15T18:24:16.505Z,102856.30
2018-06-15T18:25:56.964Z,102842.76
2018-06-15T18:27:37.495Z,102834.24
2018-06-15T18:29:17.786Z,102830.14
2018-06-15T18:30:54.865Z,102836.87
2018-06-15T18:32:39.228Z,102794.55
2018-06-15T18:34:15.670Z,102763.41
2018-06-15T18:35:55.621Z,102801.22
2018-06-15T18:37:35.423Z,102767.45
2018-06-15T18:39:17.132Z,102676.86
2018-06-15T18:40:56.976Z,102627.77
2018-06-15T18:42:34.756Z,102699.73
2018-06-15T18:44:11.283Z,102722.73
2018-06-15T18:45:49.117Z,102743.05
2018-06-15T18:47:26.675Z,102722.25
2018-06-15T18:49:03.917Z,102717.74
2018-06-15T18:50:43.267Z,102688.45
2018-06-15T18:52:21.850Z,102629.42
2018-06-15T18:54:00.205Z,102637.97
2018-06-15T18:55:36.664Z,102593.40
2018-06-15T18:57:15.411Z,102532.20
2018-06-15T18:59:00.333Z,102535.83
2018-06-15T19:00:42.805Z,102591.55
2018-06-15T19:02:22.756Z,102630.26
2018-06-15T19:04:05.432Z,102604.57
2018-06-15T19:05:44.355Z,102582.48
2018-06-15T19:07:21.537Z,102463.27
2018-06-15T19:09:01.948Z,102483.06
2018-06-15T19:10:42.256Z,102422.80
2018-06-15T19:12:19.704Z,102474.05
2018-06-15T19:13:57.339Z,102438.52
2018-06-15T19:15:38.688Z,102426.34
2018-06-15T19:17:16.577Z,102421.84